Time;durP1;ratioP1;P1;durP2;ratioP2;P2;SDS_P1;SDS_P2;PMS_P1;PMS_P2;Temp;Humidity;BMP_temperature;BMP_pressure;BME280_temperature;BME280_humidity;BME280_pressure;Samples;Min_cycle;Max_cycle;Signal;HPM_P1;HPM_P2
2023/09/20 00:01:22;;;;;;;8.82;1.95;;;17.70;99.90;;;;;;5022488;28;20029;-60
2023/09/20 00:03:48;;;;;;;7.45;1.42;;;17.70;99.90;;;;;;5020959;28;20041;-58
2023/09/20 00:06:17;;;;;;;9.77;2.17;;;17.60;99.90;;;;;;5019224;28;20021;-58
2023/09/20 00:08:43;;;;;;;10.23;2.03;;;17.50;99.90;;;;;;5021427;28;20125;-57
2023/09/20 00:11:15;;;;;;;7.82;2.45;;;17.40;99.90;;;;;;5018810;28;20121;-58
2023/09/20 00:13:43;;;;;;;7.35;2.22;;;17.30;99.90;;;;;;5019205;28;20049;-60
2023/09/20 00:16:10;;;;;;;6.80;1.70;;;17.40;99.90;;;;;;5023381;28;20056;-55
2023/09/20 00:18:36;;;;;;;5.72;1.77;;;17.30;99.90;;;;;;5014433;28;20034;-57
2023/09/20 00:21:01;;;;;;;3.75;1.52;;;17.10;99.90;;;;;;5027100;28;20496;-54
2023/09/20 00:23:28;;;;;;;6.00;2.10;;;17.10;99.90;;;;;;5027821;28;20029;-60
2023/09/20 00:25:54;;;;;;;9.10;2.45;;;17.10;99.90;;;;;;5018431;28;20018;-58
2023/09/20 00:28:19;;;;;;;7.45;2.45;;;17.00;99.90;;;;;;5015143;28;20044;-60
2023/09/20 00:30:45;;;;;;;10.70;2.00;;;16.90;99.90;;;;;;5016773;28;20514;-59
2023/09/20 00:33:14;;;;;;;7.78;1.63;;;16.90;99.90;;;;;;5016363;28;20038;-58
2023/09/20 00:35:40;;;;;;;6.03;1.88;;;16.90;99.90;;;;;;5024214;28;20029;-60
2023/09/20 00:38:06;;;;;;;5.38;1.52;;;16.90;99.90;;;;;;5022368;28;20040;-58
2023/09/20 00:40:33;;;;;;;5.40;1.63;;;16.80;99.90;;;;;;5016409;28;20096;-56
2023/09/20 00:42:59;;;;;;;7.80;2.00;;;16.70;99.90;;;;;;5017354;28;20041;-57
2023/09/20 00:45:25;;;;;;;9.73;1.83;;;16.60;99.90;;;;;;5021020;28;20452;-60
2023/09/20 00:47:56;;;;;;;9.07;2.35;;;16.50;99.90;;;;;;5016857;28;20026;-59
2023/09/20 00:50:22;;;;;;;7.45;2.03;;;16.50;99.90;;;;;;5022530;28;20029;-58
2023/09/20 00:52:52;;;;;;;6.47;1.85;;;16.50;99.90;;;;;;5022103;28;20503;-57
2023/09/20 00:55:23;;;;;;;5.57;1.95;;;16.50;99.90;;;;;;5017511;28;20110;-52
2023/09/20 00:57:53;;;;;;;5.80;1.70;;;16.50;99.90;;;;;;5020694;28;20128;-55
2023/09/20 01:00:27;;;;;;;4.32;1.77;;;16.50;99.90;;;;;;5015388;28;20145;-53
2023/09/20 01:02:57;;;;;;;9.98;2.75;;;16.50;99.90;;;;;;5025570;28;20025;-58
2023/09/20 01:05:25;;;;;;;8.15;1.95;;;16.50;99.90;;;;;;5018743;28;20037;-56
2023/09/20 01:07:56;;;;;;;8.85;2.10;;;16.60;99.90;;;;;;5018146;28;20030;-57
2023/09/20 01:10:25;;;;;;;7.00;2.00;;;16.60;99.90;;;;;;5017454;28;20040;-56
2023/09/20 01:12:56;;;;;;;6.95;2.08;;;16.60;99.90;;;;;;5020242;28;20076;-58
2023/09/20 01:15:22;;;;;;;7.20;2.22;;;16.60;99.90;;;;;;5017426;28;20029;-58
2023/09/20 01:17:50;;;;;;;3.78;1.88;;;16.50;99.90;;;;;;5018802;28;20063;-59
2023/09/20 01:20:20;;;;;;;7.78;2.13;;;16.50;99.90;;;;;;5020919;28;20029;-60
2023/09/20 01:22:46;;;;;;;5.28;1.77;;;16.50;99.90;;;;;;5028498;28;20025;-60
2023/09/20 01:25:20;;;;;;;8.15;2.17;;;16.50;99.90;;;;;;5021209;28;20391;-58
2023/09/20 01:27:46;;;;;;;5.88;2.20;;;16.50;99.90;;;;;;5026200;28;20029;-57
2023/09/20 01:30:12;;;;;;;2.15;1.73;;;16.50;99.90;;;;;;5014482;28;20072;-58
2023/09/20 01:32:37;;;;;;;6.22;1.90;;;16.50;99.90;;;;;;5023854;28;20049;-59
2023/09/20 01:35:04;;;;;;;8.55;2.00;;;16.40;99.90;;;;;;5020450;28;20044;-57
2023/09/20 01:37:30;;;;;;;5.38;1.58;;;16.40;99.90;;;;;;5019448;28;20067;-56
2023/09/20 01:39:57;;;;;;;7.57;1.63;;;16.40;99.90;;;;;;5020867;28;20117;-58
2023/09/20 01:42:22;;;;;;;8.63;2.05;;;16.40;99.90;;;;;;5025844;28;20036;-56
2023/09/20 01:44:49;;;;;;;8.55;2.25;;;16.40;99.90;;;;;;5018253;28;20030;-58
2023/09/20 01:47:15;;;;;;;6.15;1.80;;;16.40;99.90;;;;;;5015389;28;20053;-58
2023/09/20 01:49:42;;;;;;;5.32;1.98;;;16.40;99.90;;;;;;5015326;28;20037;-58
2023/09/20 01:52:08;;;;;;;6.28;1.90;;;16.40;99.90;;;;;;5020891;28;20506;-59
2023/09/20 01:54:37;;;;;;;7.90;2.03;;;16.40;99.90;;;;;;5024932;28;20504;-57
2023/09/20 01:57:05;;;;;;;6.07;1.85;;;16.30;99.90;;;;;;5022137;28;20472;-53
2023/09/20 01:59:31;;;;;;;5.97;2.33;;;16.40;99.90;;;;;;5015592;28;20025;-58
2023/09/20 02:01:57;;;;;;;6.35;1.95;;;16.40;99.90;;;;;;5024983;28;20518;-59
2023/09/20 02:04:23;;;;;;;16.80;2.13;;;16.30;99.90;;;;;;5029664;28;20026;-58
2023/09/20 02:06:49;;;;;;;4.38;1.70;;;16.40;99.90;;;;;;5022957;28;20499;-57
2023/09/20 02:09:16;;;;;;;6.65;2.38;;;16.40;99.90;;;;;;5020081;28;20026;-60
2023/09/20 02:11:42;;;;;;;6.63;2.05;;;16.40;99.90;;;;;;5026517;28;20065;-58
2023/09/20 02:14:07;;;;;;;8.68;2.20;;;16.40;99.90;;;;;;5018820;28;20069;-59
2023/09/20 02:16:33;;;;;;;4.63;1.88;;;16.40;99.90;;;;;;5020837;28;20493;-58
2023/09/20 02:18:58;;;;;;;6.78;1.92;;;16.40;99.90;;;;;;5023858;28;20038;-59
2023/09/20 02:21:24;;;;;;;9.93;2.33;;;16.40;99.90;;;;;;5023000;28;20496;-58
2023/09/20 02:23:52;;;;;;;5.28;1.80;;;16.40;99.90;;;;;;5030332;28;20035;-59
2023/09/20 02:26:18;;;;;;;9.13;1.90;;;16.30;99.90;;;;;;5029350;28;20025;-57
2023/09/20 02:28:44;;;;;;;4.25;1.83;;;16.30;99.90;;;;;;5015924;28;20029;-58
2023/09/20 02:31:11;;;;;;;8.73;1.88;;;16.30;99.90;;;;;;5013874;28;20535;-59
2023/09/20 02:33:37;;;;;;;11.32;2.42;;;16.30;99.90;;;;;;5015674;28;20036;-56
2023/09/20 02:36:03;;;;;;;7.63;2.28;;;16.30;99.90;;;;;;5016750;28;20034;-56
2023/09/20 02:38:30;;;;;;;4.90;1.77;;;16.30;99.90;;;;;;5012832;28;20104;-54
2023/09/20 02:40:57;;;;;;;5.28;1.88;;;16.20;99.90;;;;;;5012575;28;20116;-52
2023/09/20 02:43:22;;;;;;;7.07;1.92;;;16.20;99.90;;;;;;5012102;28;20749;-55
2023/09/20 02:45:48;;;;;;;7.53;2.05;;;16.10;99.90;;;;;;5014500;28;20120;-57
2023/09/20 02:48:14;;;;;;;5.82;2.15;;;16.10;99.90;;;;;;5018622;28;20061;-54
2023/09/20 02:50:44;;;;;;;5.00;2.20;;;16.10;99.90;;;;;;5015348;28;20171;-57
2023/09/20 02:53:09;;;;;;;6.75;2.00;;;16.10;99.90;;;;;;5014867;28;20121;-56
2023/09/20 02:55:35;;;;;;;7.32;2.40;;;16.10;99.90;;;;;;5015679;28;21943;-58
2023/09/20 02:58:01;;;;;;;10.75;2.15;;;16.10;99.90;;;;;;5013358;28;20026;-54
2023/09/20 03:00:30;;;;;;;10.77;2.10;;;16.10;99.90;;;;;;5014468;28;20540;-55
2023/09/20 03:02:57;;;;;;;7.82;2.10;;;16.00;99.90;;;;;;5013769;28;20029;-53
2023/09/20 03:05:28;;;;;;;6.22;2.03;;;16.00;99.90;;;;;;5015196;28;20029;-55
2023/09/20 03:07:54;;;;;;;14.68;2.10;;;15.90;99.90;;;;;;5015734;28;20034;-58
2023/09/20 03:10:21;;;;;;;8.30;2.15;;;16.00;99.90;;;;;;5015813;28;20025;-55
2023/09/20 03:12:47;;;;;;;3.72;1.70;;;15.90;99.90;;;;;;5014351;28;20087;-57
2023/09/20 03:15:17;;;;;;;5.70;1.85;;;15.90;99.90;;;;;;5017029;28;20037;-56
2023/09/20 03:17:50;;;;;;;8.77;1.83;;;15.90;99.90;;;;;;5011851;28;20044;-56
2023/09/20 03:20:32;;;;;;;4.03;1.73;;;15.90;99.90;;;;;;5020299;28;20112;-54
2023/09/20 03:22:59;;;;;;;6.95;2.55;;;15.90;99.90;;;;;;5010418;28;20026;-55
2023/09/20 03:25:28;;;;;;;8.07;1.90;;;15.90;99.90;;;;;;5014795;28;20029;-51
2023/09/20 03:27:54;;;;;;;9.43;2.42;;;15.90;99.90;;;;;;5013956;28;20049;-58
2023/09/20 03:30:20;;;;;;;8.40;1.42;;;15.90;99.90;;;;;;5011111;28;20040;-57
2023/09/20 03:32:47;;;;;;;7.22;2.22;;;16.00;99.90;;;;;;5013137;28;20038;-54
2023/09/20 03:35:13;;;;;;;6.22;2.05;;;15.90;99.90;;;;;;5023539;28;20025;-59
2023/09/20 03:37:43;;;;;;;6.45;2.15;;;15.90;99.90;;;;;;5024571;28;20033;-54
2023/09/20 03:40:15;;;;;;;6.43;2.15;;;15.90;99.90;;;;;;5026498;28;20049;-55
2023/09/20 03:42:41;;;;;;;5.53;2.22;;;15.90;99.90;;;;;;5024787;28;20021;-56
2023/09/20 03:45:10;;;;;;;12.13;2.25;;;16.00;99.90;;;;;;5025360;28;20032;-53
2023/09/20 03:47:36;;;;;;;8.88;2.10;;;16.00;99.90;;;;;;5020691;28;20036;-55
2023/09/20 03:50:03;;;;;;;7.63;1.90;;;16.00;99.90;;;;;;5013512;28;20430;-60
2023/09/20 03:52:29;;;;;;;10.40;2.10;;;16.10;99.90;;;;;;5015465;28;20052;-56
2023/09/20 03:54:55;;;;;;;9.25;2.42;;;16.10;99.90;;;;;;5012562;28;20045;-58
2023/09/20 03:57:24;;;;;;;8.45;1.98;;;16.10;99.90;;;;;;5012799;28;20038;-60
2023/09/20 03:59:51;;;;;;;4.97;2.10;;;16.10;99.90;;;;;;5011563;28;20160;-60
2023/09/20 04:02:17;;;;;;;7.03;2.08;;;16.10;99.90;;;;;;5014601;28;21388;-59
2023/09/20 04:04:42;;;;;;;8.18;2.30;;;16.10;99.90;;;;;;5012533;28;20919;-58
2023/09/20 04:07:08;;;;;;;8.82;3.30;;;16.10;99.90;;;;;;5017239;28;20042;-58
2023/09/20 04:09:35;;;;;;;8.55;2.05;;;16.10;99.90;;;;;;5015697;28;20030;-57
2023/09/20 04:12:01;;;;;;;4.68;2.00;;;16.10;99.90;;;;;;5012949;28;20118;-58
2023/09/20 04:14:27;;;;;;;4.32;1.83;;;16.10;99.90;;;;;;5022039;28;20057;-59
2023/09/20 04:16:53;;;;;;;3.58;1.63;;;16.00;99.90;;;;;;5021054;28;20041;-57
2023/09/20 04:19:22;;;;;;;5.45;2.10;;;16.00;99.90;;;;;;5021422;28;20037;-54
2023/09/20 04:21:48;;;;;;;4.43;1.80;;;16.00;99.90;;;;;;5021512;28;20064;-57
2023/09/20 04:24:15;;;;;;;11.85;2.58;;;16.00;99.90;;;;;;5022062;28;20522;-58
2023/09/20 04:26:41;;;;;;;5.78;2.30;;;16.00;99.90;;;;;;5019024;28;20025;-53
2023/09/20 04:29:06;;;;;;;7.05;2.60;;;16.00;99.90;;;;;;5019391;28;20018;-55
2023/09/20 04:31:33;;;;;;;8.80;2.13;;;16.00;99.90;;;;;;5017587;28;20037;-56
2023/09/20 04:33:59;;;;;;;4.85;1.73;;;16.00;99.90;;;;;;5026046;28;20053;-59
2023/09/20 04:36:27;;;;;;;3.75;2.20;;;16.00;99.90;;;;;;5024759;28;20045;-58
2023/09/20 04:38:52;;;;;;;6.53;1.80;;;16.00;99.90;;;;;;5025605;28;20034;-59
2023/09/20 04:41:18;;;;;;;8.88;2.45;;;16.00;99.90;;;;;;5018836;28;20099;-57
2023/09/20 04:43:43;;;;;;;5.95;1.88;;;16.00;99.90;;;;;;5023034;28;20040;-57
2023/09/20 04:46:10;;;;;;;8.35;2.00;;;16.00;99.90;;;;;;5023854;28;20026;-59
2023/09/20 04:48:38;;;;;;;5.60;2.03;;;16.00;99.90;;;;;;5019687;28;20025;-56
2023/09/20 04:51:04;;;;;;;8.73;1.83;;;16.00;99.90;;;;;;5019622;28;20021;-58
2023/09/20 04:53:29;;;;;;;4.20;1.50;;;16.00;99.90;;;;;;5019513;28;20510;-60
2023/09/20 04:55:56;;;;;;;7.38;2.05;;;16.00;99.90;;;;;;5013446;28;20026;-57
2023/09/20 04:58:21;;;;;;;10.93;1.80;;;16.00;99.90;;;;;;5012664;28;20800;-57
2023/09/20 05:00:48;;;;;;;6.15;1.95;;;16.10;99.90;;;;;;5006313;28;20033;-55
2023/09/20 05:03:15;;;;;;;8.82;2.28;;;16.10;99.90;;;;;;5010309;28;20018;-55
2023/09/20 05:05:41;;;;;;;7.90;2.05;;;16.10;99.90;;;;;;5010776;28;20415;-55
2023/09/20 05:08:08;;;;;;;7.53;1.95;;;16.10;99.90;;;;;;5010295;28;20018;-57
2023/09/20 05:10:34;;;;;;;4.85;1.90;;;16.10;99.90;;;;;;5012065;28;20048;-58
2023/09/20 05:13:00;;;;;;;6.70;2.05;;;16.10;99.90;;;;;;5009608;28;20668;-59
2023/09/20 05:15:25;;;;;;;6.07;1.88;;;16.10;99.90;;;;;;5013298;28;20755;-55
2023/09/20 05:17:51;;;;;;;5.55;1.90;;;16.10;99.90;;;;;;5016807;28;20042;-60
2023/09/20 05:20:17;;;;;;;7.85;1.98;;;16.00;99.90;;;;;;5011861;28;20030;-59
2023/09/20 05:22:42;;;;;;;10.35;2.33;;;16.00;99.90;;;;;;5013804;28;20040;-56
2023/09/20 05:25:09;;;;;;;14.55;2.65;;;16.00;99.90;;;;;;5017482;28;20025;-55
2023/09/20 05:27:36;;;;;;;5.13;2.10;;;16.00;99.90;;;;;;5010246;28;20156;-55
2023/09/20 05:30:01;;;;;;;5.40;1.80;;;16.00;99.90;;;;;;5012931;28;20091;-57
2023/09/20 05:32:27;;;;;;;5.93;2.38;;;16.00;99.90;;;;;;5008296;28;20034;-53
2023/09/20 05:34:53;;;;;;;4.78;1.90;;;16.00;99.90;;;;;;5018701;28;20025;-57
2023/09/20 05:37:18;;;;;;;4.65;2.13;;;16.00;99.90;;;;;;5010881;28;20017;-56
2023/09/20 05:39:47;;;;;;;7.28;2.50;;;16.00;99.90;;;;;;5009593;28;20030;-59
2023/09/20 05:42:14;;;;;;;7.13;2.13;;;15.90;99.90;;;;;;5015034;28;20037;-56
2023/09/20 05:44:40;;;;;;;6.93;2.05;;;15.90;99.90;;;;;;5010114;28;20782;-58
2023/09/20 05:47:08;;;;;;;6.25;1.92;;;15.90;99.90;;;;;;5012629;28;20172;-55
2023/09/20 05:49:34;;;;;;;8.68;2.47;;;15.80;99.90;;;;;;5007108;28;20080;-57
2023/09/20 05:52:04;;;;;;;8.45;2.17;;;15.80;99.90;;;;;;5012859;28;20163;-55
2023/09/20 05:54:29;;;;;;;4.82;2.13;;;15.80;99.90;;;;;;5010560;28;20025;-54
2023/09/20 05:56:55;;;;;;;6.00;2.17;;;15.80;99.90;;;;;;5013353;28;20052;-57
2023/09/20 05:59:22;;;;;;;6.50;2.33;;;15.70;99.90;;;;;;5008064;28;20250;-60
2023/09/20 06:01:47;;;;;;;9.27;2.47;;;15.70;99.90;;;;;;5008438;28;20038;-53
2023/09/20 06:04:13;;;;;;;9.35;2.42;;;15.70;99.90;;;;;;5010461;28;20022;-57
2023/09/20 06:06:39;;;;;;;5.57;2.35;;;15.70;99.90;;;;;;5016712;28;20022;-58
2023/09/20 06:09:05;;;;;;;7.50;2.67;;;15.70;99.90;;;;;;5018691;28;20034;-57
2023/09/20 06:11:31;;;;;;;8.65;2.63;;;15.70;99.90;;;;;;5012917;28;20029;-56
2023/09/20 06:13:57;;;;;;;9.93;2.25;;;15.80;99.90;;;;;;5010032;28;20099;-59
2023/09/20 06:16:22;;;;;;;8.23;2.33;;;15.80;99.90;;;;;;5017177;28;20558;-58
2023/09/20 06:18:49;;;;;;;7.78;2.63;;;15.90;99.90;;;;;;5009321;28;20029;-61
2023/09/20 06:21:17;;;;;;;3.67;2.38;;;15.90;99.90;;;;;;5015239;28;20040;-55
2023/09/20 06:23:46;;;;;;;6.00;2.13;;;16.00;99.90;;;;;;5016621;28;20035;-60
2023/09/20 06:26:12;;;;;;;4.82;2.30;;;16.00;99.90;;;;;;5018968;28;20018;-59
2023/09/20 06:28:42;;;;;;;13.32;2.90;;;16.10;99.90;;;;;;5019495;28;20025;-59
2023/09/20 06:31:14;;;;;;;4.50;2.28;;;16.20;99.90;;;;;;5014403;28;20057;-57
2023/09/20 06:33:41;;;;;;;5.38;2.35;;;16.20;99.90;;;;;;5017753;28;20508;-60
2023/09/20 06:36:07;;;;;;;8.63;2.60;;;16.30;99.90;;;;;;5024859;28;20183;-60
2023/09/20 06:38:34;;;;;;;5.35;2.90;;;16.40;99.90;;;;;;5014701;28;20539;-61
2023/09/20 06:41:00;;;;;;;5.68;2.50;;;16.50;99.90;;;;;;5020973;28;20032;-59
2023/09/20 06:43:26;;;;;;;5.88;2.33;;;16.60;99.90;;;;;;5021285;28;20485;-54
2023/09/20 06:45:52;;;;;;;8.43;2.65;;;16.60;99.90;;;;;;5021669;28;20037;-58
2023/09/20 06:48:22;;;;;;;10.77;2.50;;;16.60;99.90;;;;;;5027026;28;20369;-57
2023/09/20 06:50:49;;;;;;;11.43;2.40;;;16.70;99.90;;;;;;5017222;28;20036;-56
2023/09/20 06:53:15;;;;;;;11.48;2.72;;;16.70;99.90;;;;;;5019382;28;20052;-59
2023/09/20 06:55:41;;;;;;;4.53;2.47;;;16.80;99.90;;;;;;5015833;28;20110;-60
2023/09/20 06:58:07;;;;;;;7.45;2.33;;;16.90;99.90;;;;;;5018112;28;20066;-57
2023/09/20 07:00:35;;;;;;;8.50;2.90;;;16.90;99.90;;;;;;5027359;28;20108;-58
2023/09/20 07:03:02;;;;;;;8.90;2.28;;;16.90;99.90;;;;;;5024643;28;20021;-59
2023/09/20 07:05:28;;;;;;;5.93;2.20;;;17.00;99.90;;;;;;5030675;28;20022;-59
2023/09/20 07:07:54;;;;;;;4.75;2.03;;;17.10;99.90;;;;;;5023081;28;20029;-58
2023/09/20 07:10:21;;;;;;;10.45;2.55;;;17.20;99.90;;;;;;5024804;28;20055;-59
2023/09/20 07:12:46;;;;;;;5.97;2.10;;;17.20;99.90;;;;;;5021548;28;20090;-60
2023/09/20 07:15:16;;;;;;;6.13;1.95;;;17.20;99.90;;;;;;5032064;28;20033;-58
2023/09/20 07:17:42;;;;;;;6.07;2.28;;;17.30;99.90;;;;;;5025313;28;20050;-59
2023/09/20 07:20:19;;;;;;;5.57;2.42;;;17.30;99.90;;;;;;5022988;28;20052;-60
2023/09/20 07:22:46;;;;;;;5.43;2.03;;;17.40;99.90;;;;;;5016066;28;20543;-59
2023/09/20 07:25:19;;;;;;;5.55;2.20;;;17.40;99.90;;;;;;5016868;28;20033;-59
2023/09/20 07:27:45;;;;;;;7.63;2.13;;;17.50;99.90;;;;;;5018668;28;20044;-60
2023/09/20 07:30:18;;;;;;;3.58;1.70;;;17.50;99.90;;;;;;5026915;28;20031;-57
2023/09/20 07:32:48;;;;;;;6.10;2.17;;;17.60;99.90;;;;;;5024811;28;20029;-58
2023/09/20 07:35:26;;;;;;;10.60;1.90;;;17.70;99.90;;;;;;5025587;28;20037;-58
2023/09/20 07:37:58;;;;;;;4.40;1.77;;;17.80;99.90;;;;;;5019497;28;20029;-56
2023/09/20 07:40:30;;;;;;;9.85;2.13;;;17.80;99.90;;;;;;5024051;28;20554;-58
2023/09/20 07:43:10;;;;;;;2.45;1.50;;;17.90;99.90;;;;;;5023715;28;20406;-55
2023/09/20 07:45:39;;;;;;;9.70;2.85;;;18.00;99.90;;;;;;5023385;28;20051;-56
2023/09/20 07:48:12;;;;;;;4.30;2.00;;;18.00;99.90;;;;;;5025706;28;20028;-58
2023/09/20 07:50:40;;;;;;;2.92;1.95;;;18.10;99.90;;;;;;5019738;28;20045;-53
2023/09/20 07:53:10;;;;;;;3.78;1.85;;;18.20;99.90;;;;;;5019761;28;20033;-59
2023/09/20 07:55:37;;;;;;;5.80;1.98;;;18.20;99.90;;;;;;5025992;28;20034;-57
2023/09/20 07:58:03;;;;;;;5.50;2.17;;;18.30;99.90;;;;;;5022713;28;20380;-61
2023/09/20 08:00:28;;;;;;;5.65;1.90;;;18.30;99.90;;;;;;5019939;28;20036;-57
2023/09/20 08:02:54;;;;;;;11.75;2.33;;;18.30;99.90;;;;;;5023233;28;20127;-58
2023/09/20 08:05:22;;;;;;;5.45;1.73;;;18.40;99.90;;;;;;5027430;28;20013;-59
2023/09/20 08:07:47;;;;;;;4.82;2.20;;;18.50;99.90;;;;;;5026868;28;20032;-58
2023/09/20 08:10:13;;;;;;;4.10;1.98;;;18.60;99.90;;;;;;5022555;28;20025;-55
2023/09/20 08:12:39;;;;;;;4.60;1.67;;;18.60;99.90;;;;;;5021079;28;20053;-52
2023/09/20 08:15:05;;;;;;;6.38;2.13;;;18.70;99.90;;;;;;5025966;28;20045;-58
2023/09/20 08:20:21;;;;;;;7.65;1.75;;;18.70;99.90;;;;;;5019434;28;20404;-60
2023/09/20 09:01:19;;;;;;;8.20;1.73;;;19.80;99.90;;;;;;5026297;28;20095;-57
2023/09/20 09:03:45;;;;;;;6.32;1.55;;;19.90;99.90;;;;;;5027340;28;20022;-56
2023/09/20 09:06:12;;;;;;;5.25;1.50;;;20.00;99.90;;;;;;5027572;28;20075;-58
2023/09/20 09:08:38;;;;;;;2.75;1.55;;;20.10;99.90;;;;;;5019886;28;20087;-57
2023/09/20 09:11:03;;;;;;;2.30;1.42;;;20.20;99.90;;;;;;5017901;28;20128;-57
2023/09/20 09:13:30;;;;;;;2.50;1.40;;;20.30;99.90;;;;;;5029372;28;20520;-54
2023/09/20 09:15:55;;;;;;;7.32;1.58;;;20.40;99.90;;;;;;5033802;28;20033;-55
2023/09/20 09:18:21;;;;;;;3.55;1.13;;;20.40;99.90;;;;;;5022776;28;20034;-62
2023/09/20 09:20:47;;;;;;;4.50;1.25;;;20.40;99.90;;;;;;5020636;28;20097;-57
2023/09/20 09:23:32;;;;;;;3.20;1.45;;;20.50;99.90;;;;;;5022863;28;20026;-58
2023/09/20 09:25:58;;;;;;;3.90;1.17;;;20.60;99.90;;;;;;5024558;28;20091;-58
2023/09/20 09:28:26;;;;;;;7.13;1.33;;;20.70;99.90;;;;;;5023280;28;20021;-58
2023/09/20 09:30:54;;;;;;;2.85;1.20;;;20.80;99.90;;;;;;5021636;28;20036;-60
2023/09/20 09:33:20;;;;;;;7.05;1.67;;;21.00;99.90;;;;;;5021083;28;20458;-59
2023/09/20 09:35:48;;;;;;;1.85;1.05;;;21.20;99.90;;;;;;5022708;28;20116;-60
2023/09/20 09:38:20;;;;;;;3.88;1.00;;;21.40;99.90;;;;;;5022260;28;20055;-57
2023/09/20 09:40:53;;;;;;;4.07;1.23;;;21.60;99.90;;;;;;5025108;28;20029;-58
2023/09/20 09:43:19;;;;;;;2.08;1.10;;;21.60;99.90;;;;;;5022822;28;20028;-60
2023/09/20 09:45:49;;;;;;;3.35;1.08;;;21.50;99.90;;;;;;5021080;28;20120;-57
2023/09/20 09:48:16;;;;;;;3.08;1.30;;;21.50;99.90;;;;;;5020845;28;20014;-58
2023/09/20 09:50:46;;;;;;;3.53;1.40;;;21.50;99.90;;;;;;5025879;28;20087;-58
2023/09/20 09:53:13;;;;;;;2.95;1.17;;;21.60;99.90;;;;;;5025710;28;20529;-58
2023/09/20 09:55:40;;;;;;;14.82;1.42;;;21.90;99.90;;;;;;5024390;28;20053;-58
2023/09/20 09:58:08;;;;;;;2.13;1.30;;;22.30;99.90;;;;;;5020051;28;20035;-54
2023/09/20 10:00:36;;;;;;;4.38;1.42;;;22.20;99.90;;;;;;5017574;28;20575;-57
2023/09/20 10:03:18;;;;;;;2.70;1.02;;;22.10;99.90;;;;;;5025001;28;20033;-58
2023/09/20 10:05:46;;;;;;;2.75;1.40;;;22.20;99.90;;;;;;5015911;28;20033;-59
2023/09/20 10:08:13;;;;;;;2.85;0.85;;;22.20;99.90;;;;;;5027768;28;20053;-56
2023/09/20 10:10:41;;;;;;;3.35;1.10;;;22.40;99.90;;;;;;5026111;28;20076;-58
2023/09/20 10:13:08;;;;;;;5.53;1.00;;;22.50;99.90;;;;;;5022965;28;20116;-58
2023/09/20 10:15:35;;;;;;;2.25;0.98;;;22.70;99.90;;;;;;5020811;28;20041;-59
2023/09/20 10:18:01;;;;;;;6.18;1.08;;;22.70;99.90;;;;;;5024972;28;20562;-58
2023/09/20 10:21:04;;;;;;;3.67;1.30;;;22.80;99.90;;;;;;5024586;28;20029;-54
2023/09/20 10:23:34;;;;;;;2.53;0.90;;;22.40;99.90;;;;;;5023628;28;20067;-58
2023/09/20 10:26:00;;;;;;;3.92;1.10;;;22.40;99.90;;;;;;5024915;28;20026;-57
2023/09/20 10:28:34;;;;;;;3.13;0.98;;;22.40;99.90;;;;;;5033506;28;20479;-53
2023/09/20 10:31:01;;;;;;;3.20;1.50;;;22.40;99.90;;;;;;5027952;28;20383;-56
2023/09/20 10:33:46;;;;;;;9.27;1.23;;;22.30;99.90;;;;;;5028140;28;20483;-58
2023/09/20 10:36:13;;;;;;;;;;;22.40;99.90;;;;;;5031649;28;20053;-57
2023/09/20 10:38:40;;;;;;;3.28;1.05;;;22.60;99.90;;;;;;5028156;28;20131;-58
2023/09/20 10:41:09;;;;;;;3.50;1.25;;;22.70;99.90;;;;;;5025345;28;20111;-57
2023/09/20 10:43:35;;;;;;;1.63;0.90;;;22.80;99.90;;;;;;5023188;28;20022;-57
2023/09/20 10:46:07;;;;;;;6.00;1.40;;;22.50;99.90;;;;;;5022212;28;20032;-58
2023/09/20 10:48:33;;;;;;;7.28;1.25;;;22.30;99.90;;;;;;5027240;28;20117;-56
2023/09/20 10:51:03;;;;;;;3.38;1.17;;;22.20;99.90;;;;;;5024651;28;20030;-56
2023/09/20 10:53:55;;;;;;;4.35;1.08;;;22.20;99.90;;;;;;5025606;28;20036;-59
2023/09/20 10:56:52;;;;;;;4.72;0.98;;;22.30;99.90;;;;;;5026875;28;20104;-58
2023/09/20 10:59:21;;;;;;;3.10;1.10;;;22.30;99.90;;;;;;5016440;28;20025;-58
2023/09/20 11:01:52;;;;;;;3.22;0.90;;;22.40;99.90;;;;;;5026054;28;20060;-52
2023/09/20 11:04:18;;;;;;;2.08;1.00;;;22.30;99.90;;;;;;5031029;28;20025;-56
2023/09/20 11:06:47;;;;;;;4.40;1.15;;;22.30;99.90;;;;;;5030796;28;20041;-56
2023/09/20 11:09:13;;;;;;;2.35;1.20;;;22.40;99.90;;;;;;5027914;28;20843;-57
2023/09/20 11:11:39;;;;;;;3.75;1.10;;;22.70;99.90;;;;;;5025488;28;20053;-58
2023/09/20 11:14:06;;;;;;;3.75;1.05;;;22.60;99.90;;;;;;5030641;28;20480;-58
2023/09/20 11:16:31;;;;;;;7.18;1.45;;;22.60;99.90;;;;;;5035632;28;20498;-57
2023/09/20 11:18:58;;;;;;;4.30;1.30;;;22.60;99.90;;;;;;5028434;28;20042;-59
2023/09/20 11:21:24;;;;;;;4.00;1.20;;;22.60;99.90;;;;;;5020184;28;20030;-59
2023/09/20 11:23:51;;;;;;;3.15;1.42;;;22.70;99.90;;;;;;5024766;28;20021;-56
2023/09/20 11:26:27;;;;;;;3.20;1.05;;;22.80;99.90;;;;;;5015787;28;20021;-58
2023/09/20 11:28:52;;;;;;;1.83;1.15;;;22.80;99.90;;;;;;5015276;28;20521;-58
2023/09/20 11:31:25;;;;;;;4.40;1.38;;;22.90;99.90;;;;;;5022564;28;20030;-58
2023/09/20 11:33:57;;;;;;;2.80;1.38;;;23.00;99.90;;;;;;5022971;28;20032;-59
2023/09/20 11:36:23;;;;;;;3.55;1.15;;;23.00;99.90;;;;;;5023708;28;20031;-58
2023/09/20 11:38:49;;;;;;;3.42;1.20;;;23.10;99.90;;;;;;5023522;28;20026;-59
2023/09/20 11:41:15;;;;;;;3.58;1.23;;;23.40;99.90;;;;;;5022420;28;20061;-59
2023/09/20 11:43:41;;;;;;;6.82;1.02;;;23.80;99.90;;;;;;5030686;28;20450;-59
2023/09/20 11:46:10;;;;;;;4.75;1.60;;;24.20;99.90;;;;;;5028749;28;20028;-58
2023/09/20 11:48:37;;;;;;;4.55;1.42;;;24.50;99.90;;;;;;5030860;28;20029;-56
2023/09/20 11:51:03;;;;;;;4.95;0.98;;;24.80;99.90;;;;;;5024165;28;20052;-58
2023/09/20 11:53:32;;;;;;;4.93;1.20;;;24.90;99.90;;;;;;5027533;28;20099;-56
2023/09/20 11:56:01;;;;;;;5.05;1.25;;;24.80;99.90;;;;;;5026062;28;20411;-58
2023/09/20 11:58:33;;;;;;;3.90;1.10;;;24.40;99.90;;;;;;5026424;28;20112;-58
2023/09/20 12:01:00;;;;;;;3.60;1.13;;;24.40;99.90;;;;;;5023649;28;20113;-58
2023/09/20 12:03:27;;;;;;;1.85;1.00;;;24.60;99.90;;;;;;5028770;28;20021;-59
2023/09/20 12:05:53;;;;;;;4.97;1.00;;;24.90;99.90;;;;;;5026703;28;20033;-59
2023/09/20 12:08:20;;;;;;;4.53;1.20;;;25.20;99.90;;;;;;5027426;28;20365;-60
2023/09/20 12:10:46;;;;;;;3.92;1.10;;;25.00;99.90;;;;;;5023572;28;20045;-59
2023/09/20 12:13:12;;;;;;;4.68;1.33;;;25.20;99.90;;;;;;5023442;28;20586;-60
2023/09/20 12:15:42;;;;;;;4.43;1.10;;;24.90;99.90;;;;;;5023321;28;20037;-59
2023/09/20 12:18:13;;;;;;;2.92;1.13;;;25.20;99.90;;;;;;5025914;28;20064;-59
2023/09/20 12:20:38;;;;;;;4.25;1.45;;;25.50;99.90;;;;;;5028811;28;20733;-59
2023/09/20 12:23:05;;;;;;;5.75;1.20;;;25.50;99.90;;;;;;5028931;28;20113;-56
2023/09/20 12:25:30;;;;;;;4.03;1.55;;;25.60;99.90;;;;;;5026139;28;20022;-57
2023/09/20 12:27:56;;;;;;;1.85;1.13;;;25.50;99.90;;;;;;5029209;28;20021;-59
2023/09/20 12:30:26;;;;;;;7.22;1.38;;;25.60;99.90;;;;;;5021682;28;20017;-57
2023/09/20 12:32:51;;;;;;;3.53;1.30;;;26.00;99.90;;;;;;5021826;28;20026;-57
2023/09/20 12:35:17;;;;;;;3.53;1.42;;;26.40;99.90;;;;;;5025137;28;20030;-57
2023/09/20 12:37:43;;;;;;;2.58;1.25;;;25.80;99.90;;;;;;5026620;28;20057;-57
2023/09/20 12:40:09;;;;;;;8.15;1.73;;;26.00;99.90;;;;;;5026791;28;20561;-54
2023/09/20 12:42:37;;;;;;;3.33;1.65;;;25.70;99.90;;;;;;5018692;28;20116;-53
2023/09/20 12:45:05;;;;;;;4.57;1.27;;;26.00;99.90;;;;;;5025792;28;20094;-58
2023/09/20 12:47:34;;;;;;;2.25;1.50;;;26.40;99.90;;;;;;5017282;28;20018;-54
2023/09/20 12:50:03;;;;;;;8.27;1.52;;;26.50;99.90;;;;;;5016849;28;20029;-58
2023/09/20 12:52:29;;;;;;;8.77;1.30;;;26.50;99.90;;;;;;5020093;28;20033;-58
2023/09/20 12:54:55;;;;;;;3.83;1.88;;;26.10;99.90;;;;;;5014798;28;20391;-58
2023/09/20 12:57:24;;;;;;;2.28;1.13;;;26.20;99.90;;;;;;5014147;28;20026;-59
2023/09/20 12:59:49;;;;;;;2.75;1.42;;;26.40;99.90;;;;;;5013422;28;20115;-59
2023/09/20 13:02:15;;;;;;;4.25;1.50;;;26.40;99.90;;;;;;5023473;28;20101;-58
2023/09/20 13:04:41;;;;;;;2.97;1.50;;;26.00;99.90;;;;;;5028650;28;20033;-58
2023/09/20 13:07:08;;;;;;;7.75;1.58;;;25.90;99.90;;;;;;5025703;28;20030;-57
2023/09/20 13:09:34;;;;;;;5.50;1.83;;;25.90;99.90;;;;;;5032855;28;20021;-57
2023/09/20 13:12:01;;;;;;;4.63;1.58;;;26.10;99.90;;;;;;5020568;28;20028;-58
2023/09/20 13:14:30;;;;;;;3.78;1.42;;;26.30;99.90;;;;;;5032381;28;20025;-59
2023/09/20 13:16:56;;;;;;;5.47;1.38;;;26.10;99.90;;;;;;5022483;28;20029;-58
2023/09/20 13:19:21;;;;;;;2.58;1.52;;;25.80;99.90;;;;;;5025972;28;20111;-58
2023/09/20 13:21:47;;;;;;;11.35;2.05;;;26.20;99.90;;;;;;5017560;28;20966;-57
2023/09/20 13:24:13;;;;;;;5.85;1.55;;;26.30;99.90;;;;;;5020103;28;20053;-58
2023/09/20 13:26:39;;;;;;;4.63;1.50;;;26.70;99.90;;;;;;5021236;28;20044;-56
2023/09/20 13:29:05;;;;;;;5.95;1.58;;;26.80;99.90;;;;;;5018726;28;20018;-54